39°F Temp
28°F Dewpoint
65% Humidity
Temperature
9 MPH
14 KM/H
8 KTS
60°
East North
East

Wind Speed
Mostly Cloudy
Conditions
Pressure 1026.72 (hPa) - 30.32 (in)
Visibility 10.0 (mi) - 16.1 (km)

Current Conditions
KORD
Location 30(mi)
Metar :KORD 081851Z 06008KT 10SM BKN025 BKN150 04/M02 A3032 RMK AO2 SLP275 T00441022
Thu 8th December 13:51 pm

Airport
  Metar Aviation API Data Provided by https://www.checkwx.com/ PHP scripts by weather34.com ©2022